Durham parkrun # 326 - 26/05/2018

PosparkrunnerTimeAge CatAge GradeGender PosClubNoteTotal Runs
1Unknown
2Hugh LINDSAY17:42SM20-2472.88 %M2New PB!9
3Unknown
4Unknown
5Unknown
6Elliot GOWLAND18:01VM45-4979.28 %M6First Timer!1
7Michael LITTLEWOOD18:10VM40-4476.88 %M7Elvet StridersPB stays at 00:17:4579Member of the parkrun 50 Club
8Edward OLSEN18:14SM18-1972.30 %M8Herne Hill HarriersFirst Timer!1
9Dewi H18:21SM20-2470.57 %M9Vegan RunnersPB stays at 00:17:3719Strava logo
10Georgie HEBDON18:26SM25-2970.07 %M10Elvet StridersFirst Timer!3
11Joe STEPHENSON18:29SM20-2469.79 %M11New PB!5
12Andrew PICKEN18:31VM35-3973.18 %M12Blackhill BoundersFirst Timer!147Member of the parkrun 100 ClubStrava logo
13Harry PRATT18:43SM20-2468.92 %M13New PB!2
14Unknown
15Peter HARRISON18:47VM40-4474.89 %M15Durham City Harriers ACPB stays at 00:18:2856Member of the parkrun 50 ClubStrava logo
16Ben SMALE18:48VM35-3970.12 %M16Sedgefield HarriersNew PB!111Member of the parkrun 100 Club
17Graeme WATT18:56VM35-3971.57 %M17PB stays at 00:18:16170Member of the parkrun 100 ClubStrava logo
18Unknown
19Jason Conrad ALLISON19:07VM45-4975.33 %M19Crook and District ACPB stays at 00:17:04139Member of the parkrun 100 Club
20Unknown
21Unknown
22Edward WALTON19:11SM20-2467.94 %M22Cuth's Running ClubPB stays at 00:18:296
23Gareth HOPKINS19:11SM20-2467.25 %M23New PB!8Strava logo
24Will WITHYMAN19:13SM20-2467.82 %M24Cuth's Running ClubPB stays at 00:18:404
25Henry IRVINE19:16SM20-2467.65 %M25PB stays at 00:19:1221
26Joshua DAVIDSON19:21SM18-1968.13 %M26First Timer!51Member of the parkrun 50 Club
27Unknown
28Andrew HOPKINS19:26VM40-4471.87 %M28Elvet StridersPB stays at 00:17:51130Member of the parkrun 100 Club
29Jason BRIDGEWATER19:30VM45-4974.44 %M29Crook and District ACPB stays at 00:18:2488Member of the parkrun 50 Club
30Unknown
31Tom WILLS19:47SM20-2465.21 %M31New PB!6Strava logo
32Matthew WHITELOCK19:50SM25-2965.04 %M32First Timer!2
33Unknown
34Jack RICHINGS19:55SM20-2464.77 %M34New PB!14
35Mike JOHNSON20:04VM40-4469.60 %M35PB stays at 00:18:59186Member of the parkrun 100 Club
36Paul MUSSETT20:14VM50-5474.05 %M36PB stays at 00:19:39134Member of the parkrun 100 ClubStrava logo
37Unknown
38Neil YOUNG20:23VM50-5474.73 %M38PB stays at 00:18:14327Member of the parkrun 250 ClubMember of the parkrun v25 Club
39Samuel Alexander CLAGUE20:26SM20-2463.78 %M39PB stays at 00:20:0020
40Nathan AKTAY20:27SM30-3464.14 %M40First Timer!1
41Unknown
42Unknown
43Oliver SCOTT20:31SM18-1964.26 %M43First Timer!46Member of the parkrun 10 Club
44Unknown
45Rosie HODGSON20:37SW20-2471.79 %F1PB stays at 00:19:539
46Thom MILBURN20:42SM25-2962.32 %M45Elvet StridersPB stays at 00:18:5616Strava logo
47Paul HIRST20:42SM30-3462.80 %M46PB stays at 00:20:4189Member of the parkrun 50 Club
48Emma Catherine BRAMLEY20:47SW20-2471.21 %F2PB stays at 00:19:3636Member of the parkrun 10 Club
49Steven BOWEN20:50VM35-3963.28 %M47PB stays at 00:20:263
50William MCKENNA20:53JM11-1469.43 %M48Durham City Harriers ACPB stays at 00:18:52221Member of the parkrun 100 ClubMember of the parkrun v25 Club
51Andrew JOHNSON20:53VM55-5973.58 %M49PB stays at 00:20:2527
52Unknown
53Oliver MCKENNA21:04JM11-1468.83 %M51Durham City Harriers ACPB stays at 00:19:02230Member of the parkrun 100 Club
54Davey LUMSDON21:06VM50-5472.20 %M52Elvet StridersPB stays at 00:20:06142Member of the parkrun 100 ClubStrava logo
55Unknown
56Cameron HUME21:07SM20-2461.72 %M54St. John's College Cross Country ClubPB stays at 00:20:0711Strava logo
57Oliver THORNE21:11SM25-2960.90 %M55Dunstable RRCNew PB!15
58Matthew WHITE21:12SM20-2461.08 %M56New PB!2
59Unknown
60Andrew STEPHENS21:19VM50-5469.74 %M58PB stays at 00:21:116
61Guy PERES21:22SM20-2461.00 %M59PB stays at 00:19:4898Member of the parkrun 50 Club
62Chris MARLOR21:23SM30-3460.64 %M60First Timer!13
63Eddie BOOTH21:24JM15-1763.08 %M61New PB!18Member of the parkrun 10 Club
64Unknown
65Rishi JINDAL21:25SM20-2460.86 %M63Cuth's Running ClubNew PB!31
66Robert KNOWLES21:25SM18-1961.56 %M64Cuth's Running ClubNew PB!11Strava logo
67Andy HORTON21:27SM20-2460.76 %M65First Timer!1
68Chris BROWN21:28VM40-4465.53 %M66PB stays at 00:20:5017
69Dylan SWINBURNE21:34JM11-1465.77 %M67PB stays at 00:20:56134Member of the parkrun 100 Club
70Freddie NEDEN21:36SM20-2460.34 %M68PB stays at 00:20:087
71Joseph WYNNE21:37SM20-2459.91 %M69PB stays at 00:20:453
72Unknown
73Andrew FOSTER21:41SM30-3460.18 %M71Durham City Harriers ACNew PB!30Strava logo
74David KING21:47VM45-4965.11 %M72New PB!42
75John COULSON21:49VM40-4462.57 %M73PB stays at 00:20:4951Member of the parkrun 50 Club
76John ROBSON21:51VM55-5970.94 %M74Elvet StridersPB stays at 00:20:14177Member of the parkrun 100 ClubMember of the parkrun v25 Club
77Ken BRADSHAW21:53VM55-5971.44 %M75Durham City Harriers ACPB stays at 00:20:57180Member of the parkrun 100 ClubMember of the parkrun v25 Club
78Robert SKELTON21:55SM20-2458.86 %M76PB stays at 00:20:59140Member of the parkrun 100 Club
79Thomas JONES21:57SM20-2459.00 %M77First Timer!1
80Malcolm Robert SYGROVE22:01VM50-5468.05 %M78Elvet StridersPB stays at 00:21:28205Member of the parkrun 100 ClubStrava logo
81Simon HACKETT22:02VM50-5467.47 %M79Durham City Harriers ACPB stays at 00:20:48222Member of the parkrun 100 Club
82Unknown
83Andrea POOLE22:12SW20-2466.67 %F3New PB!4
84David APPLETON22:13VM45-4965.34 %M81PB stays at 00:21:4575Member of the parkrun 50 Club
85Sarah DAVIES22:14VW50-5475.41 %F4Elvet StridersPB stays at 00:21:56207Member of the parkrun 100 ClubMember of the parkrun v25 Club
86Craig CHURCHWARD22:23SM30-3457.93 %M82PB stays at 00:20:2550Member of the parkrun 50 Club
87Andrew STEMP22:24SM20-2457.81 %M83West Anglia Orienteering ClubPB stays at 00:17:3446
88James MORGAN22:27SM30-3458.13 %M84TailendersPB stays at 00:21:4273Member of the parkrun 50 Club
89Unknown
90David BROWBANK22:29VM35-3959.82 %M86Elvet StridersNew PB!60Member of the parkrun 50 ClubStrava logo
91Ewan FOX22:37JM15-1760.57 %M87PB stays at 00:20:4846Member of the parkrun 10 Club
92Andrew HOLLOWBREAD22:38VM50-5465.68 %M88PB stays at 00:22:2417
93Alex CRONIN22:43SM30-3456.93 %M89First Timer!1Strava logo
94Phil MCELHONE22:45VM45-4963.30 %M90Blackhill BoundersPB stays at 00:20:26137Member of the parkrun 100 ClubStrava logo
95Murray WILSON22:47SM25-2956.62 %M91PB stays at 00:19:174
96David GONZALEZ-ALVAREZ22:47SM30-3457.28 %M92PB stays at 00:22:1119
97Daniel Trevor MURPHY22:50SM20-2456.72 %M93Durham University Orienteering ClubPB stays at 00:20:48186Member of the parkrun 100 ClubStrava logo
98Michael COOPER22:53VM35-3957.98 %M94Darlington Harriers & ACFirst Timer!70Member of the parkrun 50 ClubStrava logo
99Brian DIXON22:57VM55-5969.28 %M95PB stays at 00:21:46254Member of the parkrun 250 ClubStrava logo
100Paul CAMPBELL22:58VM40-4459.87 %M96PB stays at 00:21:0125
101Phil HUNTER23:00VM45-4962.10 %M97Aurora HarriersPB stays at 00:19:5432Strava logo
102Mark PICKETT23:00SM30-3456.38 %M98Durham City Harriers ACPB stays at 00:20:26107Member of the parkrun 100 ClubStrava logo
103Tom CRAMOND23:01SM25-2956.12 %M99First Timer!1
104Marita LE VAUL-GRIMWOOD23:03VW45-4970.28 %F5Elvet StridersNew PB!39
105Stefano VAGLIO23:04VM40-4459.18 %M100PB stays at 00:22:4711
106Sim HORSFIELD23:16VM50-5464.40 %M101Durham City Harriers ACPB stays at 00:22:5072Member of the parkrun 50 Club
107Unknown
108James WALPOLE23:17SM18-1956.62 %M103PB stays at 00:23:095
109Fraser ARNOLD23:19SM20-2455.54 %M104PB stays at 00:22:3235
110Chris LESLIE23:21SM18-1956.46 %M105PB stays at 00:22:3818
111Graham LAVERICK23:22VM60-6469.83 %M106Crook and District ACPB stays at 00:21:19237Member of the parkrun 100 Club
112Malcolm WALKER23:23VM50-5463.08 %M107New PB!74Member of the parkrun 50 ClubStrava logo
113Darren BROWN23:24VM45-4960.61 %M108New PB!26
114Kana NOMOTO23:27SW20-2463.11 %F6New PB!12
115Jack FRADGLEY23:27SM20-2455.01 %M109New PB!2
116Unknown
117Amy HOARE23:30SW20-2462.98 %F7PB stays at 00:23:003
118David HOWE23:31VM50-5463.22 %M111Derwentside ACPB stays at 00:22:00101Member of the parkrun 100 Club
119Tamara BUD23:31SW20-2462.93 %F8PB stays at 00:23:247
120Chris SHEARSMITH23:33VM40-4457.96 %M112Elvet StridersPB stays at 00:22:25151Member of the parkrun 100 ClubStrava logo
121Stephen BROWN23:35VM45-4962.05 %M113PB stays at 00:19:5929
122Rachael DIGBY23:39SW20-2462.58 %F9PB stays at 00:23:237
123Unknown
124Bridget BRADSHAW23:45JW15-1763.65 %F10Durham City Harriers ACPB stays at 00:22:3134Member of the parkrun 10 Club
125Sam WHELAN23:47SM18-1955.43 %M115Cuth's Running ClubPB stays at 00:23:2435Member of the parkrun 10 Club
126Tony MCNEILL23:49VM50-5463.47 %M116Durham City Harriers ACPB stays at 00:23:2321
127Bronwen MANSEL23:50SW18-1962.31 %F11Suffolk Orienteering ClubNew PB!43Member of the parkrun 10 ClubMember of the parkrun v25 Club
128Ron ROBSON23:51VM45-4961.36 %M117New PB!23
129Kelly JAKUBOWSKI23:52SW30-3462.15 %F12PB stays at 00:23:4857Member of the parkrun 50 Club
130Alan ROSS23:53VM55-5964.34 %M118PB stays at 00:23:20111Member of the parkrun 100 Club
131David THORNTON23:54VM50-5462.69 %M119PB stays at 00:23:1550Member of the parkrun 50 Club
132Ian GRAHAM23:57VM60-6469.38 %M120PB stays at 00:22:3776Member of the parkrun 50 Club
133Jean BRADLEY23:58VW60-6482.13 %F13Elvet StridersPB stays at 00:23:47134Member of the parkrun 100 Club
134Rhiannon BAILEY23:58SW20-2461.75 %F14PB stays at 00:23:56263Member of the parkrun 250 Club
135Chris TAYLOR24:00VM40-4457.71 %M121New PB!43
136Unknown
137David HANCOCK24:11VM50-5461.47 %M123PB stays at 00:24:0330
138Unknown
139Dave PEEL24:13VM35-3955.95 %M125New PB!5
140Matthew FOSKETT24:13SM20-2453.82 %M126Durham University Orienteering ClubPB stays at 00:20:3996Member of the parkrun 50 ClubStrava logo
141Jonathan DAVIES24:14SM20-2453.23 %M127PB stays at 00:22:3015
142Unknown
143Alice ATKINS24:15SW20-2461.03 %F15PB stays at 00:23:4523
144Steven LYONS24:16VM35-3955.01 %M129PB stays at 00:21:4744
145Matthew PAINE24:17JM11-1461.22 %M130PB stays at 00:24:1445Member of the parkrun 10 Club
146Unknown
147Laura JENNINGS24:19SW25-2960.86 %F16Elvet StridersPB stays at 00:22:3875Member of the parkrun 50 Club
148Mahavir SHARMA24:24SM25-2952.94 %M132PB stays at 00:20:4840
149Jackie MCKENNA24:26VW50-5470.33 %F17PB stays at 00:23:02244Member of the parkrun 100 ClubMember of the parkrun v25 Club
150Tuomas EEROLA24:28VM45-4958.86 %M133PB stays at 00:23:03115Member of the parkrun 100 ClubStrava logo
151Clare WEIR24:30VW35-3962.04 %F18New PB!54Member of the parkrun 50 Club
152Louisa LAING24:31SW20-2460.37 %F19New PB!7
153Ross MCLARDIE24:33VM35-3954.04 %M134PB stays at 00:22:2431
154James CAPLE24:34SM20-2453.05 %M135St. John's College Cross Country ClubPB stays at 00:19:1418Strava logo
155Paul WALMSLEY24:34VM50-5461.53 %M136PB stays at 00:24:2215
156Omar RASGADO24:35SM20-2452.47 %M137PB stays at 00:23:502
157Unknown
158Unknown
159Stuart REAY24:44VM60-6464.82 %M140Durham City Harriers ACPB stays at 00:24:08119Member of the parkrun 100 Club
160Michael ROSS24:46VM45-4958.14 %M141PB stays at 00:22:06284Member of the parkrun 250 ClubMember of the parkrun v25 ClubStrava logo
161David ELTRINGHAM24:48VM65-6969.56 %M142PB stays at 00:24:0473Member of the parkrun 50 Club
162Victoria DIAS24:51SW30-3459.62 %F20PB stays at 00:23:2110
163Unknown
164Linda KELLY24:53VW65-6982.72 %F21PB stays at 00:24:49125Member of the parkrun 100 Club
165Matthew CARR24:55VM40-4455.18 %M144PB stays at 00:23:3919
166Marie AXT24:56SW20-2459.36 %F22PB stays at 00:24:3116
167Angus FORBES24:58VM50-5459.08 %M145New PB!5
168Unknown
169Alex DICKSON25:00SM20-2451.60 %M147PB stays at 00:20:099
170Unknown
171Dan MITCHELL25:09VM40-4454.27 %M149Elvet StridersPB stays at 00:19:59101Member of the parkrun 100 Club
172Sarah MARTINS25:10SW20-2458.81 %F23PB stays at 00:24:288
173Patrick FARRELL25:13VM60-6465.30 %M150PB stays at 00:23:43174Member of the parkrun 100 Club
174Bryony ATKIN25:14SW20-2458.65 %F24First Timer!1
175Karen BYNG25:16VW45-4965.57 %F25Elvet StridersPB stays at 00:24:2281Member of the parkrun 50 Club
176Ian SOWERBY25:22VM65-6967.35 %M151PB stays at 00:25:1012
177Ian HEDLEY25:23VM35-3952.27 %M152PB stays at 00:23:31168Member of the parkrun 100 Club
178Corrine WHALING25:27VW35-3959.14 %F26These Girls Can RunPB stays at 00:24:366
179Amy CLAYTON25:30SW18-1958.69 %F27Herts Phoenix ACNew PB!29Member of the parkrun 10 Club
180Cameron HARRINGTON25:33VM35-3951.92 %M153PB stays at 00:25:0610Strava logo
181Ben MARRAM25:34SM30-3450.85 %M154PB stays at 00:24:3831Strava logo
182Stephanie WALKER25:35VW40-4459.80 %F28Durham Triathlon ClubPB stays at 00:23:01122Member of the parkrun 100 ClubMember of the parkrun v25 ClubStrava logo
183Lucy BAKER25:36SW18-1958.46 %F29First Timer!44Member of the parkrun 10 Club
184Lindsay RODGERS25:38VM50-5457.54 %M155Durham Triathlon ClubPB stays at 00:23:19100Member of the parkrun 100 Club
185Sara FABIEN25:39VW40-4461.34 %F30First Timer!28Strava logo
186Jacquelyne GREENWOOD25:42VW60-6474.45 %F31New PB!8Strava logo
187Angus GRAHAM25:43VM55-5961.83 %M156PB stays at 00:24:42195Member of the parkrun 100 ClubMember of the parkrun v25 Club
188Mark BLACKBOURNE25:45VM55-5959.68 %M157PB stays at 00:24:5689Member of the parkrun 50 ClubStrava logo
189Paul LANCASTLE25:46VM55-5959.64 %M158New PB!45
190Tyne ANDERSON25:50SW20-2457.29 %F32New PB!4
191Harry KELSEY25:53JM15-1752.16 %M159PB stays at 00:25:4715Member of the parkrun 10 Club
192Andrew DAVIES25:54VM40-4453.47 %M160Elvet StridersPB stays at 00:20:45234Member of the parkrun 100 ClubMember of the parkrun v25 ClubStrava logo
193Stuart ORD25:57VM35-3951.83 %M161New PB!17
194Unknown
195Lee EGGLESTONE26:00VM35-3951.03 %M163PB stays at 00:25:335
196Tanya PATEL26:01JW11-1462.59 %F33Durham City Harriers ACPB stays at 00:24:53109Member of the parkrun 100 Club
197Karen FISHER26:04VW45-4961.51 %F34Blackhill BoundersPB stays at 00:25:4254Member of the parkrun 50 Club
198Russell AZAD KHAN26:05SM20-2449.65 %M164PB stays at 00:25:217
199Stephen HIRD26:08VM55-5959.31 %M165New PB!29
200Kate WATSON26:09SW20-2456.60 %F35PB stays at 00:25:3379Member of the parkrun 50 Club
201Lucy WOODS26:09VW50-5465.71 %F36New PB!8
202Greta JONES26:10VW50-5465.67 %F37Durham City Harriers ACPB stays at 00:22:23332Member of the parkrun 250 ClubMember of the parkrun v25 ClubStrava logo
203Karen HUNT26:12VW45-4961.83 %F38PB stays at 00:25:0048
204Jack TERRY26:13JM11-1455.31 %M166PB stays at 00:25:195
205Callum TERRY26:14VM45-4954.07 %M167PB stays at 00:25:235
206Alexander PULLEN26:17SM20-2449.59 %M168First Timer!73Member of the parkrun 50 ClubMember of the parkrun v25 Club
207Diane LEE26:20VW35-3957.47 %F39First Timer!1
208Elizabeth KELLY26:21SW30-3456.23 %F40New PB!92Member of the parkrun 50 Club
209Adam BENT26:23VM60-6462.98 %M169Elvet StridersPB stays at 00:21:4989Member of the parkrun 50 ClubStrava logo
210Sue BROWN26:26VW40-4459.52 %F41New PB!19
211Paul LUMSDON26:28VM45-4953.97 %M170Durham City Harriers ACPB stays at 00:23:5041Strava logo
212James HARRIS26:29VM50-5457.08 %M171PB stays at 00:24:47161Member of the parkrun 100 Club
213Greg ZAWADZKI26:31SM30-3449.21 %M172PB stays at 00:25:3719
214Jack PERRY26:35SM18-1950.16 %M173First Timer!1
215Lucas WALKER26:35SM18-1949.59 %M174Cuth's Running ClubPB stays at 00:24:094
216Kelly MCGRATH26:36VW35-3956.39 %F42PB stays at 00:26:1817
217Brian FORD26:40VM50-5455.31 %M175Crook and District ACPB stays at 00:21:58220Member of the parkrun 100 ClubMember of the parkrun v25 Club
218Catherine NESHAM MCELHONE26:43VW45-4962.01 %F43Blackhill BoundersPB stays at 00:25:57141Member of the parkrun 100 ClubStrava logo
219Sophia DRAKE26:47SW20-2455.26 %F44PB stays at 00:26:0314
220Claire HORNSBY26:47SW25-2955.26 %F45New PB!46
221Paul Andrew BEAL26:47VM55-5957.37 %M176Elvet StridersPB stays at 00:24:14166Member of the parkrun 100 Club
222Sid ROOKE26:48VM70-7468.47 %M177PB stays at 00:25:5185Member of the parkrun 50 Club
223Alison HORNSBY26:51VW50-5463.19 %F46Blackhill BoundersPB stays at 00:24:29124Member of the parkrun 100 ClubMember of the parkrun v25 ClubStrava logo
224Unknown
225Alan SMITH26:54VM70-7466.36 %M179Elvet StridersPB stays at 00:24:30257Member of the parkrun 250 ClubMember of the parkrun v25 ClubStrava logo
226Sue VOUT26:58VW40-4457.91 %F47New PB!5
227Jonathan HAMILL27:01VM40-4451.70 %M180Elvet StridersPB stays at 00:22:3576Member of the parkrun 50 ClubMember of the parkrun v25 ClubStrava logo
228Andy BIGGS27:02VM50-5454.56 %M181Durham City Harriers ACPB stays at 00:19:19143Member of the parkrun 100 ClubStrava logo
229Carrie BEATTIE27:05VW40-4456.49 %F48PB stays at 00:26:446
230Matthew ALSOP27:06SM20-2447.60 %M182New PB!26
231Jim NICHOLSON27:08VM70-7465.79 %M183Elvet StridersPB stays at 00:26:29115Member of the parkrun 100 Club
232Robert SCHOFIELD27:09VM45-4952.24 %M184PB stays at 00:24:0531Member of the parkrun v25 Club
233Megan GROOM27:11SW18-1954.63 %F49New PB!20
234Unknown
235Unknown
236Eric GREEN27:21VM50-5454.78 %M187Team COCOPB stays at 00:22:1649
237Hannah PARRY27:22SW18-1954.26 %F50New PB!2
238Sarah WEBSTER27:25SW20-2453.98 %F51PB stays at 00:26:0847
239Celia DRUMMOND27:25VW60-6470.76 %F52PB stays at 00:26:505
240Ami SAUNDERS27:26SW25-2953.95 %F53New PB!14
241Dave TOULMIN27:26VM40-4451.28 %M188PB stays at 00:26:1043
242Richard CAMPBELL27:29VM35-3948.27 %M189First Timer!1
243Helen HACKETT27:30VW50-5462.48 %F54Elvet StridersPB stays at 00:25:53132Member of the parkrun 100 Club
244Chandrakant PATEL27:31VM40-4450.76 %M190PB stays at 00:26:35109Member of the parkrun 100 Club
245Rob ENGLAND27:32VM55-5956.30 %M191New PB!44
246Martin WELSH27:33VM50-5455.29 %M192Elvet StridersPB stays at 00:21:45202Member of the parkrun 100 Club
247Eleanor MARLES27:34SW18-1953.87 %F55New PB!3
248Alan SCOTT27:38VM50-5454.70 %M193Elvet StridersPB stays at 00:24:32107Member of the parkrun 100 Club
249Sarah LUNT27:38SW20-2453.56 %F56Southport Waterloo ACPB stays at 00:24:1676Member of the parkrun 50 ClubMember of the parkrun v25 ClubStrava logo
250Unknown
251Ian THOMPSON27:45VM45-4952.31 %M195PB stays at 00:27:177
252Stan WHITE27:47VM60-6457.71 %M196Elvet StridersPB stays at 00:25:43291Member of the parkrun 250 ClubMember of the parkrun v25 Club
253Spencer NORWAYS27:48JM11-1451.02 %M197First Timer!4
254Philip DENT27:48VM60-6459.77 %M198PB stays at 00:26:5415
255Neale DAVIES27:49VM50-5453.86 %M199PB stays at 00:26:1062Member of the parkrun 50 Club
256Sam MOORE27:50SM20-2446.53 %M200PB stays at 00:24:159
257Unknown
258Unknown
259Connie REED27:53JW11-1459.65 %F57New PB!2
260Anna SEELEY27:55VW35-3953.55 %F58Elvet StridersPB stays at 00:23:1276Member of the parkrun 50 Club
261Unknown
262Carlton BAUGH27:57VM45-4952.36 %M204PB stays at 00:24:24235Member of the parkrun 100 ClubMember of the parkrun v25 Club
263Catherine SMITH27:58VW40-4455.42 %F59Elvet StridersPB stays at 00:26:2645
264Laura HOPPER27:58JW15-1754.71 %F60Durham City Harriers ACPB stays at 00:23:5979Member of the parkrun 50 Club
265Carolyn HOPPER27:59VW45-4957.89 %F61PB stays at 00:26:12103Member of the parkrun 100 Club
266Gary HARKER28:00SM30-3446.61 %M205PB stays at 00:24:2028
267Clare WOOD28:00VW40-4454.94 %F62PB stays at 00:24:446
268Craig WOOD28:01VM40-4449.85 %M206PB stays at 00:21:446
269Karin YOUNGER28:02VW55-5966.35 %F63Durham Mums on the RunPB stays at 00:25:48231Member of the parkrun 100 ClubMember of the parkrun v25 ClubStrava logo
270Jeremy GOULDING28:04VM55-5954.75 %M207PB stays at 00:26:40129Member of the parkrun 100 ClubStrava logo
271Nick CALVER28:05VM35-3947.89 %M208PB stays at 00:25:58124Member of the parkrun 100 ClubStrava logo
272Abigail THOMPSON28:06VW40-4454.45 %F64Durham Mums on the RunNew PB!31
273Rebecca NEWBY28:09SW20-2452.58 %F65New PB!2
274Toni MALKIN28:10VW35-3953.08 %F66PB stays at 00:24:1372Member of the parkrun 50 Club
275Unknown
276Unknown
277Helen MCCUE28:20SW25-2952.24 %F67New PB!13
278Sarah WATSON28:26SW18-1952.23 %F68PB stays at 00:27:35180Member of the parkrun 100 Club
279David CLIFFORD28:27VM50-5451.85 %M211PB stays at 00:25:509
280Steven WIDDOWFIELD28:31SM30-3446.00 %M212First Timer!48Member of the parkrun v25 ClubStrava logo
281Sheena WIDDOWFIELD28:33SW30-3451.90 %F69Gosforth Social RunningFirst Timer!73Member of the parkrun 50 ClubStrava logo
282Sean MAGEE28:34VM55-5954.26 %M213PB stays at 00:28:1883Member of the parkrun 50 Club
283Lauren Ruth DONAGHY28:35JW15-1752.89 %F70Durham City Harriers ACPB stays at 00:27:0234Member of the parkrun 10 Club
284Paul G DONAGHY28:35VM50-5451.60 %M214Durham City Harriers ACPB stays at 00:23:3859Member of the parkrun 50 Club
285Thomas STOKER28:35JM15-1747.23 %M215PB stays at 00:27:2210Member of the parkrun 10 Club
286Michael WILLIAMSON28:36VM35-3946.68 %M216PB stays at 00:28:2022
287Jonathan PEARCE28:37VM65-6959.17 %M217PB stays at 00:28:218
288Unknown
289Gemma KLOPPER28:37SW20-2451.72 %F71First Timer!1
290Ellen MORGAN28:38SW18-1951.86 %F72PB stays at 00:28:255
291Lucy LOW28:42SW30-3451.68 %F73First Timer!11
292Lucy ROBERTS28:45SW18-1951.65 %F74New PB!6
293Unknown
294Emma ROBSON28:49SW20-2451.36 %F75PB stays at 00:27:4656Member of the parkrun 50 Club
295Charlie TAYLOR28:50VM65-6958.73 %M220PB stays at 00:28:1433
296Kylie CORSO28:51VW40-4453.32 %F76First Timer!192Member of the parkrun 100 ClubMember of the parkrun v25 Club
297Sateesh TANDEL28:53VM35-3946.22 %M221New PB!10
298Maria DIMOVA-COOKSON28:53VW50-5458.05 %F77Elvet StridersPB stays at 00:26:39195Member of the parkrun 100 Club
299David INGRAM28:56VM65-6960.25 %M222PB stays at 00:27:3430
300Peter BROOKS28:57VM45-4950.14 %M223North East Veterans ACPB stays at 00:21:5240
301Steve NEWBY29:03VM40-4447.33 %M224New PB!2
302Alex LIGHTBURN29:05SM20-2444.36 %M225PB stays at 00:23:419
303Audrey CHRISTIE29:06VW50-5457.62 %F78Durham City Harriers ACPB stays at 00:21:1489Member of the parkrun 50 ClubMember of the parkrun v25 Club
304Katharine BURROWS29:07VW45-4956.21 %F79New PB!2
305Vicki SUTHERLAND29:07VW40-4453.23 %F80New PB!5
306Craig RAINE29:10VM45-4948.63 %M226New PB!2
307Anne HUGHES29:11VW55-5963.74 %F81New PB!13
308Jane STEPHENS29:14VW50-5458.04 %F82New PB!19
309Anya DENTON29:16SW20-2450.57 %F83First Timer!1
310Sue WALKER29:20VW60-6465.23 %F84Elvet StridersNew PB!7Strava logo
311Ellie BACON29:25SW18-1950.48 %F85First Timer!1
312John COWEY29:27VM45-4949.69 %M227PB stays at 00:28:2518
313Gail RICHARDS29:44VW40-4451.46 %F86Evenwood Road RunnersNew PB!40Strava logo
314Jane BAILLIE29:44VW40-4452.13 %F87Elvet StridersPB stays at 00:28:0278Member of the parkrun 50 ClubMember of the parkrun v25 ClubStrava logo
315Siobhan FORBES29:45VW50-5457.03 %F88New PB!7
316Michael MCNALLY29:51VM45-4948.63 %M228PB stays at 00:25:2494Member of the parkrun 50 Club
317Gary KELSEY29:53VM55-5953.21 %M229PB stays at 00:27:0410
318Katharine PRIEST29:54VW45-4954.74 %F89PB stays at 00:27:2778Member of the parkrun 50 Club
319Jon PRIEST29:55VM45-4948.52 %M230PB stays at 00:23:3726
320Chelsey LANE29:57SW20-2449.42 %F90PB stays at 00:27:0144
321Sabrina SEEL30:00SW25-2949.33 %F91PB stays at 00:27:49117Member of the parkrun 100 Club
322Jonathan SHELDON30:04SM30-3443.13 %M231PB stays at 00:28:2224
323Liam WHITE30:08JM15-1745.46 %M232PB stays at 00:28:492
324Hayleigh MILTON30:11SW20-2449.03 %F92First Timer!1
325Unknown
326Clare ZIGMOND30:14VW35-3949.45 %F93PB stays at 00:30:039
327Charlotte JOHNSTON30:17SW20-2448.87 %F94PB stays at 00:28:5311
328Catherine DENLEY30:17VW35-3949.53 %F95Durham Mums on the RunNew PB!4
329Jane DOWSETT30:18VW45-4954.68 %F96Elvet StridersPB stays at 00:24:4595Member of the parkrun 50 Club
330Jason FABIEN30:21VM40-4446.35 %M234First Timer!31Strava logo
331Josh BROWN30:24JM11-1448.90 %M235PB stays at 00:29:059
332Lisa HARDY30:25VW45-4953.81 %F97PB stays at 00:29:4390Member of the parkrun 50 Club
333Daniel DOOLEY30:29VM45-4947.62 %M236PB stays at 00:26:40134Member of the parkrun 100 Club
334Aileen SCOTT30:31VW45-4953.63 %F98Elvet StridersPB stays at 00:27:36120Member of the parkrun 100 Club
335Philip ANWYLL30:38SM30-3442.82 %M237PB stays at 00:26:0299Member of the parkrun 50 Club
336Susannah MANSFIELD30:40SW25-2948.26 %F99New PB!9Strava logo
337Mary ENGLAND30:45VW60-6462.22 %F100New PB!43
338Caroline ROXBOROUGH30:48VW35-3948.70 %F101New PB!6
339Kieran O'BRIEN30:49VM40-4445.65 %M238First Timer!8
340Gillian GREEN30:50VW50-5454.38 %F102Elvet StridersPB stays at 00:26:30108Member of the parkrun 100 Club
341Lucas PRIEST30:51SM18-1943.22 %M239PB stays at 00:29:402
342Victoria J JACKSON30:54VW35-3948.98 %F103Elvet StridersPB stays at 00:25:5582Member of the parkrun 50 ClubMember of the parkrun v25 ClubStrava logo
343Catherine PAINE30:55VW40-4449.49 %F104PB stays at 00:28:58133Member of the parkrun 100 Club
344Wojciech ZAKRZEWSKI31:00VM70-7459.19 %M240PB stays at 00:28:0123
345Caroline SCHOLL31:09VW60-6464.10 %F105PB stays at 00:30:589
346Kakinder SIDHU31:10VW40-4449.73 %F106PB stays at 00:27:33108Member of the parkrun 100 Club
347Kevin WRIGHT31:18VM35-3942.65 %M241PB stays at 00:24:09127Member of the parkrun 100 ClubStrava logo
348Graham WHITE31:19VM45-4946.35 %M242First Timer!199Member of the parkrun 100 ClubMember of the parkrun v25 Club
349Nicola APPERLEY31:27VW50-5453.31 %F107PB stays at 00:28:42112Member of the parkrun 100 Club
350Hayley DUNBAR31:32VW35-3947.41 %F108New PB!3
351Unknown
352Henry SILVA31:42SM20-2440.69 %M244PB stays at 00:22:525
353Clare CLISH31:44VW40-4449.58 %F109PB stays at 00:24:3062Member of the parkrun 50 ClubMember of the parkrun v25 ClubStrava logo
354Louise WILDISH31:48VW35-3947.80 %F110First Timer!12Strava logo
355Sandeep SAHA32:03SM25-2940.25 %M245New PB!2
356Kathleen VALLANCE32:09VW50-5454.85 %F111PB stays at 00:31:2211
357Brenda DAVIDSON32:14VW55-5955.43 %F112PB stays at 00:29:4276Member of the parkrun 50 Club
358Stuart DREW32:14VM55-5949.33 %M246Shildon Running and ACPB stays at 00:24:1996Member of the parkrun 50 Club
359Charlotte GOURLAY32:23VW55-5957.44 %F113Durham Mums on the RunPB stays at 00:29:4531
360Unknown
361Glenn BATEY32:27VM35-3940.88 %M248Riverside StridersPB stays at 00:31:0893Member of the parkrun 50 Club
362Fiona ELTRINGHAM32:29VW70-7468.55 %F114PB stays at 00:30:4373Member of the parkrun 50 Club
363Claire LIDDLE32:37VW35-3946.60 %F115PB stays at 00:32:162
364Deborah CLOW32:37VW35-3946.14 %F116PB stays at 00:32:374
365Emma KING32:48VW45-4948.42 %F117New PB!2
366Lewis LITTLEWOOD32:50JM11-1446.60 %M249Durham City Harriers ACPB stays at 00:23:3382Member of the parkrun 50 Club
367Alison FOGGON32:51VW55-5954.39 %F118PB stays at 00:30:34195Member of the parkrun 100 Club
368Stephen CRONIN32:51VM55-5948.40 %M250First Timer!1Strava logo
369Unknown
370Bozena STANSFIELD33:03VW40-4447.60 %F119PB stays at 00:27:1429
371Barbara ROBERTS33:13VW60-6461.01 %F120Durham Mums on the RunPB stays at 00:29:12160Member of the parkrun 100 Club
372Ann WEST33:17VW70-7466.90 %F121Durham Mums on the RunPB stays at 00:32:268
373Naomi IRELAND-JONES33:34SW20-2444.09 %F122PB stays at 00:30:0312
374Kim COUGHTREY33:38VW55-5955.30 %F123New PB!18
375Alice BENNETT33:55SW30-3443.93 %F124PB stays at 00:28:13126Member of the parkrun 100 Club
376Joe APPLEGARTH34:06VM75-7958.90 %M252PB stays at 00:27:5978Member of the parkrun 50 Club
377Rebecca PICKARD34:15SW30-3443.26 %F125New PB!3
378Amelia STANSFIELD34:16JW11-1446.60 %F126PB stays at 00:31:5210Member of the parkrun 10 Club
379Joseph POTTER34:17JM1049.64 %M253New PB!17Member of the parkrun 10 Club
380James POTTER34:18VM35-3938.92 %M254Elvet StridersPB stays at 00:26:50125Member of the parkrun 100 ClubStrava logo
381Corrin BRAMLEY34:31VW40-4444.33 %F127Durham Mums on the RunPB stays at 00:34:202
382Debra KENNEDY34:31VW45-4948.00 %F128Durham Mums on the RunFirst Timer!1
383Laura GIBSON34:32VW40-4444.55 %F129Durham Mums on the RunPB stays at 00:31:5130
384Julie SWINBANK34:32VW35-3944.02 %F130Durham Mums on the RunPB stays at 00:28:2313
385Andrew NARRACOTT34:38SM20-2437.63 %M255PB stays at 00:30:3661Member of the parkrun 50 Club
386Stephen ELLIS34:45VM65-6948.25 %M256Elvet StridersPB stays at 00:23:50112Member of the parkrun 100 Club
387Dan SEVERS34:48JM15-1739.99 %M257New PB!2
388Kendra JOHNSON35:09VW40-4444.10 %F131PB stays at 00:34:1047
389Julie MCINTYRE35:19VW50-5449.32 %F132PB stays at 00:30:0230
390Geoff MCINTYRE35:19VM55-5944.27 %M258PB stays at 00:30:5991Member of the parkrun 50 Club
391Julia ALLPORT35:20VW50-5447.45 %F133New PB!4
392Oliver COWEY35:26JM11-1441.96 %M259PB stays at 00:35:079Strava logo
393Alice SPEED36:11SW18-1941.04 %F134First Timer!1Strava logo
394David ARNOTT36:13VM60-6445.05 %M260Elvet StridersPB stays at 00:27:28173Member of the parkrun 100 Club
395Katharine BARTLETT36:18VW50-5447.34 %F135Elvet StridersPB stays at 00:33:42114Member of the parkrun 100 ClubMember of the parkrun v25 Club
396Kay CAIRNS36:21VW35-3941.27 %F136Elvet StridersPB stays at 00:31:2563Member of the parkrun 50 ClubStrava logo
397Shelagh BARTON36:21VW60-6455.75 %F137Elvet StridersPB stays at 00:32:22110Member of the parkrun 100 Club
398Unknown
399Elaine NATTRESS36:40VW50-5448.09 %F138PB stays at 00:36:0221
400Julie CLARK36:43VW50-5448.03 %F139New PB!37
401Michelle HEIGHTLEY36:55VW50-5445.42 %F140PB stays at 00:33:3933
402Robert Stephen TALBOT36:58VM35-3936.38 %M262New PB!5
403Jayne SMYTH37:20VW45-4942.54 %F141PB stays at 00:34:029
404Naomi TONES38:30VW40-4439.74 %F142PB stays at 00:37:554
405Gerry HEHIR38:32VM60-6442.34 %M263Crook and District ACPB stays at 00:25:105
406Dominic HEHIR38:32SM18-1934.21 %M264First Timer!1
407Unknown
408Claire GALLOWAY39:29SW30-3437.74 %F143Elvet StridersPB stays at 00:31:5263Member of the parkrun 50 ClubStrava logo
409Rebecca DONEY40:27SW25-2936.59 %F144PB stays at 00:40:2515
410Mike ELLIOTT40:36VM70-7443.97 %M266Elvet StridersPB stays at 00:26:42339Member of the parkrun 250 ClubMember of the parkrun v25 Club
411Emma Louise BATEY40:37VW35-3937.05 %F145PB stays at 00:27:05129Member of the parkrun 100 Club
412Mike SEVERS41:01VM50-5436.53 %M267First Timer!1
413Felicity BREET41:40VW65-6949.40 %F146PB stays at 00:41:0718
414Joanne CONWAY41:42VW35-3936.45 %F147First Timer!1
415Rachael WILLIAMSON41:42SW30-3435.49 %F148First Timer!1
416Helen BLACK41:43SW30-3435.72 %F149PB stays at 00:32:317
417Lisa TINSELL42:19VW45-4939.15 %F150PB stays at 00:30:542
418Narayan SARKAR45:00VM45-4932.52 %M268PB stays at 00:42:223
419Benjamin RANDERSON51:57JM1032.76 %M269PB stays at 00:45:153
420Sebastian RANDERSON52:00JM1038.14 %M270PB stays at 00:47:212
421Elliott RANDERSON52:01VM40-4427.04 %M271PB stays at 00:47:223
422Holly BODINNER59:04JW1028.89 %F151PB stays at 00:36:158
423Joanne BODINNER59:05VW50-5428.38 %F152PB stays at 00:25:59135Member of the parkrun 100 Club
424Rachel WRIGHT1:01:50VW40-4424.74 %F153Durham Triathlon ClubPB stays at 00:25:55102Member of the parkrun 100 ClubMember of the parkrun v25 ClubStrava logo
425Rachel LEIGH-FIRBANK1:01:55VW40-4425.41 %F154Team COCOPB stays at 00:36:0343Strava logo
426Neil JENNINGS1:01:56VM50-5424.19 %M272Team COCOPB stays at 00:27:37146Member of the parkrun 100 ClubStrava logo
427Elaine JENNINGS1:01:58VW55-5928.83 %F155Team COCOPB stays at 00:33:49144Member of the parkrun 100 ClubStrava logo

Thanks to the volunteers

We are very grateful to the volunteers who made this event happen:Jane BAILLIE, Judith BUMBY, Kay CAIRNS, James CAPLE, Jamie CARESS, Andrew CAREY, Antony CLISH, Clare CLISH, Yvonne COLLINGHAM, Eleonora CROSIGNANI, Sophie DENNIS, Rebecca DONEY, Stephen DOOLEY, Jane DOWSETT, Karl EDMENSON, Mike ELLIOTT, Colin EVERSON, Steve FARROW, Claire GALLOWAY, Simon GRAHAM, Angus GRAHAM, Jonathan HAMILL, John Paul HARDY, John HUTCHINSON, Richard JACKSON, Neil JENNINGS, Elaine JENNINGS, Sarah KERR, Catrin MORGAN, Stephanie Frances PIPER, Harriet PRITCHARD, Alan ROWELL, John TOMLINSON, Conrad WHITE, Jill YOUNG

Why not get involved and volunteer?

What is this table?

This table shows the complete results for the specified week at this event. It is automatically shown when you navigate to the results page, but can also be reached by clicking on Latest Results, or by picking a specific week from the Event History table. If you bookmark the Latest Results page in your browser, the bookmark will always take you to the most up to date results table. If you bookmark a results page reached via the Event History table, the bookmark will then always take you to that specific week's results.

The columns

  • Pos - the runner's overall position in the run.
  • parkrunner - is the registered name of the athlete; clicking on the name takes you to that athlete's results page for this event.
  • Time - is the runner's recorded time - we record the overall time between the run director's start instruction and the runner crossing the finish line.
  • Age Cat - represents the age category of the runner on the day of the run; the first letter represents the major age categories (J)unior, (S)enior and (Veteran); the second letter represents gender (M)en and (W)omen; the remainder of the category represents a more specific age range. There are two further categories for wheel chair users; WWC and MWC represent Women and Men respectively. Clicking on the result category takes you to that age categories' historical record for this event.
  • Age Grade
  • - Gives an indication of how well the runner has done relative to their age and gender see the FAQ article for more information.
  • Gender - (M)ale or (F)emale
  • Gender Pos- Gender finish positions.
  • Club - Running club if registered.
  • Note - Note - Comments about PBs (Personal Bests).
  • Total Runs - Total number of runs across all parkruns, an indicator of membership of the various parkrun clubs, and their links with partner websites.

As with any of the results tables, the table can be sorted by any column by clicking on the column heading.